Toronto, Ontario

9:11 PM EDT on July 26, 2016 (GMT -0400)
Toronto-City Centre | | Change Station

Elev 253 ft 43.63 °N, 79.40 °W | Updated 11 minutes ago

Clear
Clear
82 °F
Feels Like 82 °F
N
9
Wind Variable Wind from NW

Today
High -- | Low -- °F
--% Chance of Precip.
Yesterday
High -- | Low -- °F
Precip. -- in
Pressure 29.94 in
Visibility 9.0 miles
Clouds Clear
Heat Index 82 °F
Dew Point 59 °F
Humidity 45%
Rainfall 0.00 in
Snow Depth Not available.
6:00 AM 8:46 PM
Waning Gibbous, 49% visible
METAR CYTZ 270100Z AUTO 31008KT 9SM CLR 28/15 A2993 RMK SLP136 DENSITY ALT 1700FT
Pressure 29.94 in
Visibility 9.0 miles
Clouds Clear
Heat Index 82 °F
Dew Point 59 °F
Humidity 45%
Rainfall 0.00 in
Snow Depth Not available.
6:00 AM 8:46 PM
Waning Gibbous, 49% visible
METAR CYTZ 270100Z AUTO 31008KT 9SM CLR 28/15 A2993 RMK SLP136 DENSITY ALT 1700FT

10-Day Weather Forecast

Almanac

Astronomy

Jul. 26, 2016 Rise Set
Actual Time
Civil Twilight
Nautical Twilight
Astronomical Twilight
Moon
Length of Visible Light
Length of Day
Tomorrow will be .
, % of the Moon is Illuminated

Today's Extremes

Country Highs Country Lows

Community

WunderPhotos

Upload Photos

1,927,762 photos uploaded!

WunderBlog® & News

Nearby

Air Quality

  Air Quality AQ Index Pollutant
Not available.

Snow Depth

Station Depth Elevation

Earthquake Activity

City Distance Mag. Time & Date
Minimum magnitude displayed is 2.5.

Coastal Water Temperatures

Place Temperature

Stations

Nearby Weather Stations

Station Location Temp. Windchill Dew Point Humidity Wind Precip. Elev Updated Type
                   

Watches & Warnings

There are currently no watches in effect.